createdAt,value
2018-10-03T00:02:05.667Z,13.87
2018-10-03T00:04:33.840Z,8.00
2018-10-03T00:07:02.008Z,8.97
2018-10-03T00:09:30.171Z,6.93
2018-10-03T00:11:58.331Z,8.47
2018-10-03T00:14:26.495Z,5.97
2018-10-03T00:16:54.687Z,6.00
2018-10-03T00:19:22.875Z,6.00
2018-10-03T00:21:50.798Z,5.13
2018-10-03T00:24:18.963Z,7.13
2018-10-03T00:26:47.132Z,7.50
2018-10-03T00:29:15.347Z,7.70
2018-10-03T00:31:43.546Z,6.97
2018-10-03T00:34:11.715Z,6.27
2018-10-03T00:36:39.951Z,4.33
2018-10-03T00:39:08.282Z,8.70
2018-10-03T00:41:36.463Z,5.33
2018-10-03T00:44:05.599Z,10.10
2018-10-03T00:46:33.756Z,6.03
2018-10-03T00:49:01.919Z,6.50
2018-10-03T00:51:30.195Z,3.73
2018-10-03T00:53:58.349Z,7.60
2018-10-03T00:56:26.615Z,4.53
2018-10-03T00:58:54.781Z,9.63
2018-10-03T01:01:22.939Z,10.60
2018-10-03T01:03:51.103Z,6.60
2018-10-03T01:06:19.386Z,7.97
2018-10-03T01:08:47.532Z,4.00
2018-10-03T01:11:15.691Z,6.73
2018-10-03T01:13:43.870Z,5.83
2018-10-03T01:16:12.030Z,8.43
2018-10-03T01:18:40.207Z,8.40
2018-10-03T01:21:08.383Z,7.33
2018-10-03T01:23:36.602Z,7.37
2018-10-03T01:26:04.653Z,7.57
2018-10-03T01:28:32.860Z,5.17
2018-10-03T01:31:01.010Z,6.23
2018-10-03T01:33:29.154Z,7.73
2018-10-03T01:36:08.451Z,4.97
2018-10-03T01:38:36.597Z,5.87
2018-10-03T01:41:04.763Z,7.97
2018-10-03T01:43:32.922Z,3.47
2018-10-03T01:46:00.852Z,6.57
2018-10-03T01:48:28.773Z,4.93
2018-10-03T01:50:56.943Z,5.20
2018-10-03T01:53:25.098Z,5.03
2018-10-03T01:55:53.246Z,5.47
2018-10-03T01:58:21.398Z,8.00
2018-10-03T02:00:49.598Z,6.03
2018-10-03T02:03:17.761Z,9.87
2018-10-03T02:05:46.041Z,2.57
2018-10-03T02:08:14.214Z,6.93
2018-10-03T02:10:42.522Z,7.00
2018-10-03T02:13:10.688Z,10.10
2018-10-03T02:15:38.593Z,7.10
2018-10-03T02:18:06.538Z,5.87
2018-10-03T02:20:34.700Z,5.00
2018-10-03T02:23:02.918Z,6.80
2018-10-03T02:25:31.111Z,9.17
2018-10-03T02:27:59.266Z,4.93
2018-10-03T02:30:27.439Z,7.43
2018-10-03T02:32:55.618Z,6.60
2018-10-03T02:35:23.779Z,8.60
2018-10-03T02:37:51.958Z,6.23
2018-10-03T02:40:20.111Z,7.67
2018-10-03T02:42:48.276Z,7.63
2018-10-03T02:45:19.643Z,7.33
2018-10-03T02:47:48.683Z,4.97
2018-10-03T02:50:16.850Z,3.57
2018-10-03T02:52:45.000Z,4.53
2018-10-03T02:55:13.170Z,5.87
2018-10-03T02:57:41.410Z,4.00
2018-10-03T03:00:09.635Z,6.83
2018-10-03T03:02:37.795Z,5.53
2018-10-03T03:05:05.971Z,5.50
2018-10-03T03:07:33.990Z,4.67
2018-10-03T03:10:02.179Z,2.63
2018-10-03T03:12:30.350Z,9.83
2018-10-03T03:14:58.534Z,6.97
2018-10-03T03:17:26.770Z,6.43
2018-10-03T03:19:55.029Z,6.90
2018-10-03T03:22:23.194Z,3.87
2018-10-03T03:24:51.146Z,8.57
2018-10-03T03:27:19.102Z,15.20
2018-10-03T03:29:47.284Z,3.57
2018-10-03T03:32:15.463Z,3.03
2018-10-03T03:34:43.648Z,7.07
2018-10-03T03:37:11.798Z,5.30
2018-10-03T03:39:39.976Z,6.13
2018-10-03T03:42:08.266Z,7.17
2018-10-03T03:44:36.442Z,4.73
2018-10-03T03:47:04.647Z,7.17
2018-10-03T03:49:32.766Z,6.30
2018-10-03T03:52:00.983Z,4.87
2018-10-03T03:54:29.124Z,5.70
2018-10-03T03:56:57.310Z,5.43
2018-10-03T03:59:25.496Z,4.83
2018-10-03T04:01:53.642Z,3.57
2018-10-03T04:04:21.822Z,8.30
2018-10-03T04:06:50.030Z,5.03
2018-10-03T04:09:18.200Z,6.13
2018-10-03T04:11:46.370Z,5.70
2018-10-03T04:14:14.599Z,6.50
2018-10-03T04:16:42.593Z,5.53
2018-10-03T04:19:10.735Z,5.77
2018-10-03T04:21:40.083Z,4.23
2018-10-03T04:24:10.286Z,6.03
2018-10-03T04:26:39.095Z,4.47
2018-10-03T04:29:07.338Z,6.20
2018-10-03T04:31:36.097Z,7.93
2018-10-03T04:34:04.917Z,4.70
2018-10-03T04:36:33.714Z,5.53
2018-10-03T04:39:02.074Z,5.50
2018-10-03T04:41:30.255Z,6.67
2018-10-03T04:43:58.408Z,4.27
2018-10-03T04:46:26.583Z,6.07
2018-10-03T04:48:54.764Z,7.53
2018-10-03T04:51:22.918Z,6.23
2018-10-03T04:53:51.134Z,4.50
2018-10-03T04:56:19.062Z,8.00
2018-10-03T04:58:47.222Z,7.03
2018-10-03T05:01:15.429Z,6.67
2018-10-03T05:03:43.591Z,2.53
2018-10-03T05:06:11.757Z,6.10
2018-10-03T05:08:39.916Z,3.23
2018-10-03T05:11:08.087Z,6.60
2018-10-03T05:13:36.268Z,3.30
2018-10-03T05:16:04.466Z,4.03
2018-10-03T05:18:32.633Z,4.67
2018-10-03T05:21:00.889Z,8.17
2018-10-03T05:23:29.067Z,4.20
2018-10-03T05:25:56.982Z,4.43
2018-10-03T05:28:25.184Z,3.03
2018-10-03T05:30:53.358Z,4.47
2018-10-03T05:33:21.606Z,5.07
2018-10-03T05:35:49.711Z,6.20
2018-10-03T05:38:17.882Z,4.93
2018-10-03T05:40:46.054Z,6.17
2018-10-03T05:43:14.226Z,6.67
2018-10-03T05:45:42.622Z,9.13
2018-10-03T05:48:10.834Z,8.60
2018-10-03T05:50:38.998Z,3.73
2018-10-03T05:53:07.216Z,5.67
2018-10-03T05:55:35.387Z,6.50
2018-10-03T05:58:03.646Z,7.57
2018-10-03T06:00:31.820Z,4.53
2018-10-03T06:03:00.015Z,6.47
2018-10-03T06:05:28.212Z,5.07
2018-10-03T06:07:56.406Z,5.77
2018-10-03T06:10:24.562Z,5.83
2018-10-03T06:12:52.510Z,7.60
2018-10-03T06:15:20.689Z,6.70
2018-10-03T06:17:48.879Z,5.13
2018-10-03T06:20:17.031Z,5.83
2018-10-03T06:22:44.951Z,5.37
2018-10-03T06:25:13.102Z,5.80
2018-10-03T06:27:41.359Z,3.57
2018-10-03T06:30:09.600Z,5.33
2018-10-03T06:32:37.784Z,4.97
2018-10-03T06:35:06.003Z,4.30
2018-10-03T06:37:34.178Z,3.87
2018-10-03T06:40:02.366Z,2.87
2018-10-03T06:42:30.562Z,2.43
2018-10-03T06:44:58.742Z,5.37
2018-10-03T06:47:27.981Z,3.73
2018-10-03T06:49:56.167Z,3.93
2018-10-03T06:52:24.343Z,4.30
2018-10-03T06:54:53.630Z,12.53
2018-10-03T06:57:21.786Z,5.97
2018-10-03T06:59:49.989Z,5.60
2018-10-03T07:02:18.181Z,2.63
2018-10-03T07:04:46.348Z,7.33
2018-10-03T07:07:14.514Z,6.33
2018-10-03T07:09:42.695Z,3.87
2018-10-03T07:12:10.696Z,3.53
2018-10-03T07:14:38.902Z,6.33
2018-10-03T07:17:07.211Z,3.73
2018-10-03T07:19:35.390Z,7.83
2018-10-03T07:22:03.563Z,4.00
2018-10-03T07:24:31.469Z,4.12
2018-10-03T07:26:59.642Z,5.23
2018-10-03T07:29:27.793Z,5.53
2018-10-03T07:31:55.967Z,5.07
2018-10-03T07:34:24.138Z,3.33
2018-10-03T07:36:52.326Z,3.03
2018-10-03T07:39:20.558Z,3.30
2018-10-03T07:41:48.826Z,3.97
2018-10-03T07:44:16.963Z,3.93
2018-10-03T07:46:45.139Z,5.77
2018-10-03T07:49:13.330Z,2.70
2018-10-03T07:51:41.483Z,2.83
2018-10-03T07:54:09.659Z,3.37
2018-10-03T07:56:37.830Z,3.40
2018-10-03T07:59:06.220Z,3.80
2018-10-03T08:01:34.322Z,4.47
2018-10-03T08:04:02.471Z,2.23
2018-10-03T08:06:30.621Z,2.57
2018-10-03T08:08:58.521Z,1.90
2018-10-03T08:11:26.436Z,3.67
2018-10-03T08:13:54.587Z,1.87
2018-10-03T08:16:22.814Z,2.07
2018-10-03T08:18:50.714Z,1.57
2018-10-03T08:21:18.858Z,2.53
2018-10-03T08:23:47.022Z,1.90
2018-10-03T08:26:15.169Z,2.93
2018-10-03T08:28:43.311Z,1.43
2018-10-03T08:31:11.488Z,1.30
2018-10-03T08:33:39.630Z,4.10
2018-10-03T08:36:07.802Z,1.40
2018-10-03T08:38:36.016Z,1.10
2018-10-03T08:41:04.146Z,2.37
2018-10-03T08:43:32.290Z,2.00
2018-10-03T08:46:00.538Z,1.97
2018-10-03T08:48:28.724Z,1.33
2018-10-03T08:50:56.891Z,1.73
2018-10-03T08:53:25.204Z,1.07
2018-10-03T08:55:53.142Z,1.20
2018-10-03T08:58:21.417Z,1.67
2018-10-03T09:00:49.510Z,2.27
2018-10-03T09:03:17.666Z,2.43
2018-10-03T09:05:45.859Z,2.23
2018-10-03T09:08:15.421Z,1.60
2018-10-03T09:10:44.907Z,3.03
2018-10-03T09:13:13.219Z,1.30
2018-10-03T09:15:41.447Z,1.37
2018-10-03T09:18:09.683Z,2.50
2018-10-03T09:20:37.960Z,2.07
2018-10-03T09:23:06.487Z,2.37
2018-10-03T09:25:34.433Z,1.90
2018-10-03T09:28:02.645Z,2.20
2018-10-03T09:30:30.819Z,2.20
2018-10-03T09:32:59.205Z,2.30
2018-10-03T09:35:27.370Z,2.00
2018-10-03T09:37:55.579Z,3.07
2018-10-03T09:40:23.734Z,3.10
2018-10-03T09:42:51.903Z,2.70
2018-10-03T09:45:20.064Z,2.93
2018-10-03T09:47:48.221Z,3.00
2018-10-03T09:50:16.367Z,5.80
2018-10-03T09:52:44.510Z,3.30
2018-10-03T09:55:12.642Z,4.60
2018-10-03T09:57:40.777Z,4.30
2018-10-03T10:00:09.321Z,3.30
2018-10-03T10:02:37.748Z,3.13
2018-10-03T10:05:05.911Z,3.33
2018-10-03T10:07:34.050Z,4.40
2018-10-03T10:10:02.223Z,4.13
2018-10-03T10:12:30.370Z,2.70
2018-10-03T10:14:58.534Z,3.37
2018-10-03T10:17:26.693Z,3.70
2018-10-03T10:19:54.830Z,4.20
2018-10-03T10:22:22.978Z,7.37
2018-10-03T10:24:50.888Z,3.80
2018-10-03T10:27:19.072Z,3.80
2018-10-03T10:29:47.206Z,6.00
2018-10-03T10:32:15.458Z,4.50
2018-10-03T10:34:43.519Z,8.70
2018-10-03T10:37:11.674Z,7.00
2018-10-03T10:39:39.802Z,4.53
2018-10-03T10:42:07.737Z,13.33
2018-10-03T10:44:35.923Z,5.50
2018-10-03T10:47:03.865Z,4.37
2018-10-03T10:49:31.860Z,4.00
2018-10-03T10:52:00.054Z,6.90
2018-10-03T10:54:28.269Z,5.33
2018-10-03T10:56:56.451Z,5.03
2018-10-03T10:59:24.607Z,4.13
2018-10-03T11:01:52.750Z,6.20
2018-10-03T11:04:20.899Z,3.70
2018-10-03T11:06:49.176Z,4.13
2018-10-03T11:09:17.258Z,5.43
2018-10-03T11:11:45.455Z,3.73
2018-10-03T11:14:13.627Z,3.60
2018-10-03T11:16:41.775Z,8.67
2018-10-03T11:19:09.934Z,3.93
2018-10-03T11:21:38.092Z,3.67
2018-10-03T11:24:06.203Z,3.90
2018-10-03T11:26:34.241Z,4.93
2018-10-03T11:29:02.435Z,4.47
2018-10-03T11:31:30.455Z,4.10
2018-10-03T11:33:58.619Z,3.33
2018-10-03T11:36:26.523Z,3.57
2018-10-03T11:38:54.445Z,3.87
2018-10-03T11:41:22.398Z,3.70
2018-10-03T11:43:50.644Z,3.47
2018-10-03T11:46:18.734Z,2.80
2018-10-03T11:48:46.650Z,3.30
2018-10-03T11:51:14.782Z,4.70
2018-10-03T11:53:42.950Z,3.77
2018-10-03T11:56:11.105Z,3.43
2018-10-03T11:58:39.029Z,2.93
2018-10-03T12:01:07.182Z,3.73
2018-10-03T12:03:35.347Z,3.07
2018-10-03T12:06:03.487Z,3.50
2018-10-03T12:08:31.630Z,3.17
2018-10-03T12:10:59.852Z,2.80
2018-10-03T12:13:28.065Z,4.17
2018-10-03T12:15:56.171Z,2.73
2018-10-03T12:18:24.106Z,3.57
2018-10-03T12:20:52.314Z,3.30
2018-10-03T12:23:20.453Z,3.20
2018-10-03T12:25:48.613Z,3.30
2018-10-03T12:28:16.793Z,2.70
2018-10-03T12:30:44.958Z,2.50
2018-10-03T12:33:13.173Z,2.70
2018-10-03T12:35:41.307Z,3.63
2018-10-03T12:38:09.456Z,4.17
2018-10-03T12:40:37.607Z,2.67
2018-10-03T12:43:05.810Z,3.70
2018-10-03T12:45:33.979Z,2.60
2018-10-03T12:48:02.179Z,3.33
2018-10-03T12:50:30.351Z,3.40
2018-10-03T12:52:58.485Z,3.93
2018-10-03T12:55:26.629Z,3.33
2018-10-03T12:57:54.858Z,2.30
2018-10-03T13:00:25.273Z,2.40
2018-10-03T13:02:53.485Z,4.20
2018-10-03T13:05:21.668Z,2.83
2018-10-03T13:07:49.586Z,2.50
2018-10-03T13:10:17.750Z,2.73
2018-10-03T13:12:45.910Z,2.00
2018-10-03T13:15:13.842Z,2.57
2018-10-03T13:17:42.002Z,3.30
2018-10-03T13:20:10.204Z,2.87
2018-10-03T13:22:38.374Z,2.83
2018-10-03T13:25:06.643Z,3.00
2018-10-03T13:27:34.561Z,4.00
2018-10-03T13:30:02.728Z,3.23
2018-10-03T13:32:30.878Z,2.97
2018-10-03T13:34:59.044Z,2.87
2018-10-03T13:37:27.198Z,2.93
2018-10-03T13:39:55.362Z,3.13
2018-10-03T13:42:23.536Z,2.83
2018-10-03T13:44:51.674Z,3.23
2018-10-03T13:47:19.883Z,2.90
2018-10-03T13:49:48.032Z,2.80
2018-10-03T13:52:16.196Z,2.70
2018-10-03T13:54:44.383Z,2.83
2018-10-03T13:57:12.554Z,3.53
2018-10-03T13:59:40.711Z,3.30
2018-10-03T14:02:08.905Z,4.27
2018-10-03T14:04:37.131Z,3.93
2018-10-03T14:07:05.338Z,3.10
2018-10-03T14:09:33.486Z,3.17
2018-10-03T14:12:01.802Z,3.50
2018-10-03T14:14:29.933Z,2.80
2018-10-03T14:16:58.098Z,2.90
2018-10-03T14:19:26.250Z,2.40
2018-10-03T14:21:54.804Z,2.63
2018-10-03T14:24:22.987Z,2.63
2018-10-03T14:26:51.102Z,2.93
2018-10-03T14:29:19.358Z,2.83
2018-10-03T14:31:47.297Z,2.77
2018-10-03T14:34:15.237Z,3.40
2018-10-03T14:36:43.418Z,4.20
2018-10-03T14:39:11.674Z,2.67
2018-10-03T14:41:39.874Z,2.57
2018-10-03T14:44:07.804Z,2.73
2018-10-03T14:46:36.151Z,3.43
2018-10-03T14:49:04.267Z,3.00
2018-10-03T14:51:32.434Z,3.00
2018-10-03T14:54:00.593Z,2.90
2018-10-03T14:56:28.750Z,2.93
2018-10-03T14:58:56.977Z,4.33
2018-10-03T15:01:25.131Z,2.70
2018-10-03T15:03:53.288Z,2.97
2018-10-03T15:06:21.666Z,5.70
2018-10-03T15:08:49.779Z,3.10
2018-10-03T15:11:17.966Z,4.47
2018-10-03T15:13:46.338Z,3.10
2018-10-03T15:16:14.486Z,2.97
2018-10-03T15:18:42.401Z,3.03
2018-10-03T15:21:10.558Z,3.10
2018-10-03T15:23:38.847Z,3.20
2018-10-03T15:26:07.006Z,4.90
2018-10-03T15:28:35.158Z,2.80
2018-10-03T15:31:03.358Z,3.13
2018-10-03T15:33:31.537Z,4.57
2018-10-03T15:35:59.697Z,3.23
2018-10-03T15:38:28.174Z,3.30
2018-10-03T15:40:56.384Z,3.60
2018-10-03T15:43:24.993Z,3.10
2018-10-03T15:45:52.909Z,3.27
2018-10-03T15:48:20.977Z,3.20
2018-10-03T15:50:48.976Z,3.33
2018-10-03T15:53:17.151Z,3.80
2018-10-03T15:55:45.426Z,4.30
2018-10-03T15:58:13.393Z,3.23
2018-10-03T16:00:41.575Z,3.27
2018-10-03T16:03:09.754Z,3.07
2018-10-03T16:05:37.929Z,3.20
2018-10-03T16:08:06.135Z,3.77
2018-10-03T16:10:34.282Z,5.20
2018-10-03T16:13:02.450Z,3.30
2018-10-03T16:15:30.357Z,4.10
2018-10-03T16:17:58.526Z,4.23
2018-10-03T16:20:26.714Z,4.87
2018-10-03T16:22:54.641Z,3.63
2018-10-03T16:25:22.599Z,3.67
2018-10-03T16:27:50.755Z,4.13
2018-10-03T16:30:18.910Z,6.23
2018-10-03T16:32:47.078Z,3.90
2018-10-03T16:35:15.226Z,3.47
2018-10-03T16:37:43.399Z,3.07
2018-10-03T16:40:11.615Z,4.77
2018-10-03T16:42:39.837Z,5.20
2018-10-03T16:45:07.749Z,3.30
2018-10-03T16:47:35.902Z,3.60
2018-10-03T16:50:04.179Z,4.30
2018-10-03T16:52:32.288Z,3.33
2018-10-03T16:55:00.430Z,3.70
2018-10-03T16:57:28.602Z,3.73
2018-10-03T16:59:56.737Z,4.37
2018-10-03T17:02:24.907Z,3.60
2018-10-03T17:04:53.073Z,5.63
2018-10-03T17:07:21.227Z,3.20
2018-10-03T17:09:49.157Z,5.03
2018-10-03T17:12:17.314Z,4.23
2018-10-03T17:14:45.494Z,5.60
2018-10-03T17:17:13.452Z,7.57
2018-10-03T17:19:41.595Z,7.73
2018-10-03T17:22:09.744Z,7.50
2018-10-03T17:24:38.543Z,7.07
2018-10-03T17:27:06.719Z,7.47
2018-10-03T17:29:34.875Z,8.07
2018-10-03T17:32:03.057Z,7.97
2018-10-03T17:34:31.446Z,5.73
2018-10-03T17:36:59.603Z,5.03
2018-10-03T17:39:28.109Z,5.47
2018-10-03T17:41:56.265Z,4.07
2018-10-03T17:44:24.768Z,4.20
2018-10-03T17:46:54.095Z,4.90
2018-10-03T17:49:22.366Z,6.70
2018-10-03T17:51:50.604Z,5.40
2018-10-03T17:54:18.778Z,4.07
2018-10-03T17:56:47.027Z,4.23
2018-10-03T17:59:15.325Z,5.07
2018-10-03T18:01:46.710Z,4.70
2018-10-03T18:04:14.864Z,6.70
2018-10-03T18:06:43.001Z,6.97
2018-10-03T18:09:11.844Z,8.80
2018-10-03T18:11:40.020Z,7.73
2018-10-03T18:14:08.306Z,9.17
2018-10-03T18:16:36.537Z,6.37
2018-10-03T18:19:04.790Z,7.87
2018-10-03T18:21:33.310Z,6.90
2018-10-03T18:24:01.510Z,7.17
2018-10-03T18:26:29.638Z,6.10
2018-10-03T18:28:57.822Z,7.13
2018-10-03T18:31:26.007Z,6.50
2018-10-03T18:33:54.166Z,6.30
2018-10-03T18:36:22.326Z,8.30
2018-10-03T18:38:50.434Z,6.43
2018-10-03T18:41:18.373Z,6.83
2018-10-03T18:43:46.527Z,7.33
2018-10-03T18:46:14.675Z,6.70
2018-10-03T18:48:42.847Z,7.00
2018-10-03T18:51:10.777Z,10.27
2018-10-03T18:53:38.948Z,10.90
2018-10-03T18:56:07.183Z,10.03
2018-10-03T18:58:35.155Z,11.17
2018-10-03T19:01:03.105Z,8.07
2018-10-03T19:03:31.241Z,9.57
2018-10-03T19:05:59.385Z,9.13
2018-10-03T19:08:27.530Z,7.80
2018-10-03T19:10:55.738Z,9.47
2018-10-03T19:13:23.898Z,6.87
2018-10-03T19:15:52.068Z,7.67
2018-10-03T19:18:20.030Z,6.63
2018-10-03T19:20:48.189Z,10.10
2018-10-03T19:23:16.358Z,8.97
2018-10-03T19:25:44.550Z,8.13
2018-10-03T19:28:12.727Z,7.40
2018-10-03T19:30:40.856Z,7.37
2018-10-03T19:33:08.761Z,11.20
2018-10-03T19:35:36.931Z,7.60
2018-10-03T19:38:05.030Z,9.60
2018-10-03T19:40:33.220Z,6.97
2018-10-03T19:43:01.361Z,7.60
2018-10-03T19:45:29.326Z,7.37
2018-10-03T19:47:57.455Z,8.33
2018-10-03T19:50:25.353Z,8.27
2018-10-03T19:52:53.530Z,7.40
2018-10-03T19:55:21.750Z,7.83
2018-10-03T19:57:50.047Z,7.50
2018-10-03T20:00:18.206Z,8.60
2018-10-03T20:02:46.418Z,8.00
2018-10-03T20:05:14.695Z,6.37
2018-10-03T20:07:42.835Z,6.40
2018-10-03T20:10:10.779Z,6.30
2018-10-03T20:12:38.974Z,6.93
2018-10-03T20:15:07.074Z,9.03
2018-10-03T20:17:34.998Z,6.07
2018-10-03T20:20:03.087Z,5.80
2018-10-03T20:22:31.013Z,5.10
2018-10-03T20:24:59.069Z,5.93
2018-10-03T20:27:27.054Z,5.93
2018-10-03T20:29:55.191Z,7.33
2018-10-03T20:32:23.126Z,5.73
2018-10-03T20:34:51.289Z,8.83
2018-10-03T20:37:19.439Z,6.10
2018-10-03T20:39:47.630Z,6.77
2018-10-03T20:42:15.798Z,5.90
2018-10-03T20:44:44.002Z,6.20
2018-10-03T20:47:12.150Z,5.83
2018-10-03T20:49:40.313Z,5.83
2018-10-03T20:52:08.473Z,7.30
2018-10-03T20:54:36.702Z,5.27
2018-10-03T20:57:04.906Z,5.87
2018-10-03T20:59:33.101Z,6.87
2018-10-03T21:02:01.290Z,5.47
2018-10-03T21:04:29.213Z,7.87
2018-10-03T21:06:57.128Z,6.77
2018-10-03T21:09:25.298Z,6.73
2018-10-03T21:11:53.479Z,6.17
2018-10-03T21:14:21.635Z,6.43
2018-10-03T21:16:49.781Z,7.13
2018-10-03T21:19:17.934Z,7.30
2018-10-03T21:21:46.697Z,6.70
2018-10-03T21:24:14.862Z,6.80
2018-10-03T21:26:43.006Z,6.57
2018-10-03T21:29:11.172Z,6.20
2018-10-03T21:31:39.094Z,6.10
2018-10-03T21:34:07.002Z,9.77
2018-10-03T21:36:35.176Z,10.50
2018-10-03T21:39:04.781Z,6.00
2018-10-03T21:41:32.709Z,8.27
2018-10-03T21:44:00.879Z,5.93
2018-10-03T21:46:28.794Z,5.70
2018-10-03T21:48:56.748Z,5.97
2018-10-03T21:51:24.677Z,6.10
2018-10-03T21:53:52.848Z,6.57
2018-10-03T21:56:20.781Z,5.67
2018-10-03T21:58:48.709Z,5.87
2018-10-03T22:01:16.862Z,6.50
2018-10-03T22:03:45.037Z,5.80
2018-10-03T22:06:13.188Z,7.57
2018-10-03T22:08:41.098Z,6.60
2018-10-03T22:11:09.269Z,6.50
2018-10-03T22:13:37.459Z,7.77
2018-10-03T22:16:05.619Z,8.87
2018-10-03T22:18:33.772Z,7.57
2018-10-03T22:21:01.974Z,7.30
2018-10-03T22:23:30.135Z,8.07
2018-10-03T22:25:58.302Z,6.97
2018-10-03T22:28:26.440Z,6.07
2018-10-03T22:30:54.590Z,6.63
2018-10-03T22:33:22.517Z,8.47
2018-10-03T22:35:50.677Z,8.17
2018-10-03T22:38:18.818Z,10.63
2018-10-03T22:40:47.004Z,8.83
2018-10-03T22:43:15.153Z,11.70
2018-10-03T22:45:43.082Z,8.80
2018-10-03T22:48:11.000Z,11.37
2018-10-03T22:50:39.150Z,8.27
2018-10-03T22:53:07.302Z,8.93
2018-10-03T22:55:35.269Z,9.60
2018-10-03T22:58:03.445Z,9.17
2018-10-03T23:00:31.630Z,10.03
2018-10-03T23:02:59.786Z,9.40
2018-10-03T23:05:27.938Z,8.57
2018-10-03T23:07:55.926Z,10.50
2018-10-03T23:10:24.074Z,11.50
2018-10-03T23:12:52.007Z,13.60
2018-10-03T23:15:20.143Z,14.00
2018-10-03T23:17:48.295Z,9.97
2018-10-03T23:20:16.453Z,9.90
2018-10-03T23:22:44.643Z,10.57
2018-10-03T23:25:12.850Z,13.43
2018-10-03T23:27:41.014Z,10.23
2018-10-03T23:30:09.174Z,13.47
2018-10-03T23:32:37.394Z,13.43
2018-10-03T23:35:05.576Z,13.03
2018-10-03T23:37:33.714Z,10.80
2018-10-03T23:40:02.077Z,9.27
2018-10-03T23:42:30.270Z,10.47
2018-10-03T23:44:58.442Z,9.13
2018-10-03T23:47:26.594Z,11.67
2018-10-03T23:49:54.794Z,9.40
2018-10-03T23:52:22.950Z,8.33
2018-10-03T23:54:51.117Z,9.27
2018-10-03T23:57:19.322Z,10.73
2018-10-03T23:59:47.477Z,12.00
